Time;durP1;ratioP1;P1;durP2;ratioP2;P2;SDS_P1;SDS_P2;PMS_P1;PMS_P2;Temp;Humidity;BMP_temperature;BMP_pressure;BME280_temperature;BME280_humidity;BME280_pressure;Samples;Min_cycle;Max_cycle;Signal;HPM_P1;HPM_P2
2021/12/14 00:01:08;;;;;;;2.40;2.20;;;9.50;81.60;;;;;;5177320;27;20096;-52
2021/12/14 00:03:36;;;;;;;3.35;2.50;;;9.50;81.60;;;;;;5071911;28;20531;-54
2021/12/14 00:06:03;;;;;;;2.90;2.60;;;9.50;81.60;;;;;;5072627;28;20057;-55
2021/12/14 00:08:35;;;;;;;2.75;2.30;;;9.50;81.60;;;;;;5072458;28;20059;-53
2021/12/14 00:16:03;;;;;;;3.42;2.88;;;9.50;81.60;;;;;;5072388;28;20146;-54
2021/12/14 00:18:29;;;;;;;2.30;2.10;;;9.50;81.60;;;;;;5072203;28;20060;-54
2021/12/14 00:21:00;;;;;;;2.97;2.40;;;9.50;81.60;;;;;;5070375;28;20061;-54
2021/12/14 00:26:16;;;;;;;2.63;2.15;;;9.50;81.70;;;;;;5072225;28;20084;-54
2021/12/14 00:28:42;;;;;;;2.88;2.20;;;9.50;81.60;;;;;;5072214;28;20056;-54
2021/12/14 00:31:14;;;;;;;2.30;2.10;;;9.50;81.60;;;;;;5070489;28;20047;-53
2021/12/14 00:33:42;;;;;;;2.60;2.38;;;9.50;81.60;;;;;;5072072;28;20095;-54
2021/12/14 00:36:10;;;;;;;2.63;2.40;;;9.50;81.70;;;;;;5071429;28;20052;-54
2021/12/14 00:38:38;;;;;;;2.28;1.90;;;9.50;81.60;;;;;;5071967;28;20052;-54
2021/12/14 00:41:17;;;;;;;2.70;2.33;;;9.50;81.60;;;;;;5132370;27;20058;-53
2021/12/14 00:43:43;;;;;;;3.08;2.47;;;9.50;81.60;;;;;;5156350;27;20038;-54
2021/12/14 00:46:10;;;;;;;2.30;2.10;;;9.50;81.60;;;;;;5156221;27;20039;-54
2021/12/14 00:48:38;;;;;;;3.35;2.22;;;9.50;81.60;;;;;;5156035;27;20509;-55
2021/12/14 00:51:05;;;;;;;2.05;1.85;;;9.50;81.60;;;;;;5155788;27;20057;-55
2021/12/14 00:53:32;;;;;;;3.22;2.33;;;9.50;81.60;;;;;;5157116;27;20038;-54
2021/12/14 00:56:03;;;;;;;2.58;2.03;;;9.50;81.60;;;;;;5155897;27;20061;-54
2021/12/14 00:58:30;;;;;;;2.17;1.98;;;9.50;81.60;;;;;;5156055;27;20078;-54
2021/12/14 01:01:09;;;;;;;3.28;2.58;;;9.50;81.60;;;;;;5156160;27;20047;-55
2021/12/14 01:03:37;;;;;;;2.42;2.10;;;9.60;81.70;;;;;;5157314;27;20038;-55
2021/12/14 01:06:07;;;;;;;2.75;2.28;;;9.60;81.70;;;;;;5155628;27;20134;-54
2021/12/14 01:08:37;;;;;;;2.92;2.50;;;9.50;81.70;;;;;;5155825;27;20062;-54
2021/12/14 01:11:11;;;;;;;2.42;2.10;;;9.50;81.60;;;;;;5155631;27;20500;-55
2021/12/14 01:13:45;;;;;;;2.80;2.45;;;9.50;81.60;;;;;;5157244;27;20042;-56
2021/12/14 01:16:32;;;;;;;3.17;2.40;;;9.50;81.70;;;;;;5156169;27;20099;-53
2021/12/14 01:19:12;;;;;;;2.58;2.17;;;9.60;81.70;;;;;;5155455;27;20047;-55
2021/12/14 01:22:01;;;;;;;2.70;2.17;;;9.50;81.70;;;;;;5136888;27;20098;-55
2021/12/14 01:27:14;;;;;;;2.40;2.20;;;9.50;81.70;;;;;;5155487;27;20055;-55
2021/12/14 01:29:42;;;;;;;2.45;2.08;;;9.60;81.80;;;;;;5155684;27;20035;-53
2021/12/14 01:32:08;;;;;;;2.92;1.88;;;9.50;81.70;;;;;;5155233;27;20474;-55
2021/12/14 01:34:36;;;;;;;2.38;2.15;;;9.60;81.70;;;;;;5156387;27;20431;-55
2021/12/14 01:37:10;;;;;;;2.63;2.42;;;9.50;81.70;;;;;;5155448;27;20073;-56
2021/12/14 01:39:58;;;;;;;2.65;2.30;;;9.60;81.70;;;;;;5135849;27;20379;-56
2021/12/14 01:42:34;;;;;;;2.33;2.13;;;9.60;81.80;;;;;;5154780;27;20043;-51
2021/12/14 01:45:02;;;;;;;2.35;1.92;;;9.50;81.70;;;;;;5156396;27;20117;-56
2021/12/14 01:47:36;;;;;;;2.75;1.95;;;9.50;81.70;;;;;;5155004;27;20047;-57
2021/12/14 01:50:09;;;;;;;2.78;1.90;;;9.50;81.70;;;;;;5136154;27;20066;-56
2021/12/14 01:52:36;;;;;;;2.92;2.00;;;9.60;81.80;;;;;;5154503;27;20077;-54
2021/12/14 01:55:12;;;;;;;2.70;2.10;;;9.60;81.70;;;;;;5154164;27;20057;-55
2021/12/14 01:57:40;;;;;;;2.22;1.90;;;9.60;81.70;;;;;;5156172;27;20050;-53
2021/12/14 02:00:10;;;;;;;2.50;2.10;;;9.60;81.70;;;;;;5154585;27;20178;-51
2021/12/14 02:02:43;;;;;;;2.35;2.15;;;9.60;81.70;;;;;;5154708;27;20035;-52
2021/12/14 02:05:23;;;;;;;3.45;1.85;;;9.60;81.70;;;;;;5154441;27;20386;-54
2021/12/14 02:07:50;;;;;;;2.55;2.15;;;9.60;81.70;;;;;;5155413;27;20039;-56
2021/12/14 02:10:24;;;;;;;2.63;2.28;;;9.60;81.70;;;;;;5154230;27;20081;-55
2021/12/14 02:12:50;;;;;;;3.13;2.58;;;9.60;81.70;;;;;;5135906;27;20058;-55
2021/12/14 02:15:26;;;;;;;2.35;1.95;;;9.60;81.70;;;;;;5154468;27;20134;-54
2021/12/14 02:17:54;;;;;;;2.53;2.00;;;9.60;81.80;;;;;;5136947;27;20057;-55
2021/12/14 02:20:25;;;;;;;3.45;2.80;;;9.60;81.70;;;;;;5154029;27;20038;-56
2021/12/14 02:22:51;;;;;;;2.67;2.28;;;9.60;81.70;;;;;;5154367;27;20076;-56
2021/12/14 02:25:18;;;;;;;2.35;2.05;;;9.60;81.70;;;;;;5154252;27;20375;-54
2021/12/14 02:27:46;;;;;;;2.40;2.03;;;9.60;81.80;;;;;;5155041;27;20064;-56
2021/12/14 02:30:20;;;;;;;2.50;2.13;;;9.60;81.70;;;;;;5153933;27;20039;-55
2021/12/14 02:32:47;;;;;;;2.28;1.92;;;9.60;81.70;;;;;;5135357;27;20513;-56
2021/12/14 02:35:18;;;;;;;2.72;2.00;;;9.60;81.70;;;;;;5153753;27;20153;-55
2021/12/14 02:37:48;;;;;;;2.10;1.85;;;9.70;81.70;;;;;;5153984;27;20052;-55
2021/12/14 02:40:53;;;;;;;2.50;2.30;;;9.60;81.70;;;;;;5137560;27;20081;-55
2021/12/14 02:43:38;;;;;;;2.20;2.00;;;9.60;81.70;;;;;;5152988;27;20486;-55
2021/12/14 02:46:06;;;;;;;2.95;2.10;;;9.60;81.70;;;;;;5153994;27;20039;-55
2021/12/14 02:48:32;;;;;;;2.40;2.20;;;9.60;81.70;;;;;;5154203;27;20053;-54
2021/12/14 02:51:09;;;;;;;2.20;2.00;;;9.60;81.70;;;;;;5154846;27;20035;-56
2021/12/14 02:53:36;;;;;;;2.47;2.20;;;9.60;81.70;;;;;;5153683;27;20038;-54
2021/12/14 02:56:11;;;;;;;2.10;1.90;;;9.60;81.70;;;;;;5154328;27;20051;-55
2021/12/14 02:58:38;;;;;;;2.67;2.47;;;9.60;81.70;;;;;;5153415;27;20050;-55
2021/12/14 03:01:05;;;;;;;2.38;2.03;;;9.60;81.70;;;;;;5154722;27;20035;-54
2021/12/14 03:03:30;;;;;;;2.45;2.08;;;9.60;81.70;;;;;;5153817;27;20047;-56
2021/12/14 03:05:59;;;;;;;2.33;2.05;;;9.60;81.70;;;;;;5153332;27;20396;-56
2021/12/14 03:08:27;;;;;;;2.53;2.10;;;9.60;81.70;;;;;;5153754;27;20042;-55
2021/12/14 03:11:11;;;;;;;3.42;2.67;;;9.60;81.70;;;;;;5154605;27;20039;-54
2021/12/14 03:13:42;;;;;;;2.38;2.08;;;9.60;81.70;;;;;;5153815;27;20042;-56
2021/12/14 03:16:13;;;;;;;2.67;2.00;;;9.60;81.70;;;;;;5134921;27;20057;-56
2021/12/14 03:18:43;;;;;;;3.22;2.22;;;9.60;81.70;;;;;;5153950;27;20394;-55
2021/12/14 03:21:14;;;;;;;2.55;2.20;;;9.60;81.70;;;;;;5154710;27;20043;-56
2021/12/14 03:23:47;;;;;;;3.13;2.30;;;9.60;81.70;;;;;;5153726;27;20039;-56
2021/12/14 03:26:16;;;;;;;2.95;2.17;;;9.60;81.70;;;;;;5153505;27;20043;-55
2021/12/14 03:28:46;;;;;;;2.63;2.28;;;9.60;81.70;;;;;;5153620;27;20046;-56
2021/12/14 03:31:32;;;;;;;2.35;2.00;;;9.70;82.40;;;;;;5153652;27;20046;-55
2021/12/14 03:34:03;;;;;;;2.85;2.05;;;9.60;81.70;;;;;;5153904;27;20038;-56
2021/12/14 03:36:35;;;;;;;2.70;2.30;;;9.60;81.70;;;;;;5153231;27;20414;-57
2021/12/14 03:39:17;;;;;;;2.70;2.22;;;9.70;81.70;;;;;;5153160;27;20082;-56
2021/12/14 03:41:46;;;;;;;2.80;2.47;;;9.60;81.70;;;;;;5153574;27;20038;-56
2021/12/14 03:44:20;;;;;;;3.38;2.53;;;9.60;81.70;;;;;;5154479;27;20098;-56
2021/12/14 03:46:51;;;;;;;2.95;2.22;;;9.70;81.70;;;;;;5153063;27;20386;-56
2021/12/14 03:49:20;;;;;;;2.40;2.20;;;9.60;81.70;;;;;;5153417;27;20115;-56
2021/12/14 03:51:46;;;;;;;3.28;2.45;;;9.60;81.70;;;;;;5153553;27;20050;-56
2021/12/14 03:54:15;;;;;;;3.58;2.58;;;9.60;81.70;;;;;;5154062;27;20046;-55
2021/12/14 03:56:41;;;;;;;3.10;2.50;;;9.60;81.70;;;;;;5134816;27;20038;-57
2021/12/14 03:59:07;;;;;;;2.65;2.30;;;9.60;81.70;;;;;;5153124;27;20046;-56
2021/12/14 04:01:40;;;;;;;2.40;2.00;;;9.60;81.70;;;;;;5152812;27;20363;-55
2021/12/14 04:04:23;;;;;;;2.95;2.40;;;9.60;81.70;;;;;;5154295;27;20035;-55
2021/12/14 04:06:52;;;;;;;3.10;2.30;;;9.60;81.70;;;;;;5153145;27;20078;-56
2021/12/14 04:09:20;;;;;;;3.53;2.58;;;9.70;81.70;;;;;;5153086;27;20056;-56
2021/12/14 04:11:46;;;;;;;2.90;2.60;;;9.60;81.70;;;;;;5153331;27;20398;-57
2021/12/14 04:14:12;;;;;;;3.05;2.55;;;9.60;81.70;;;;;;5153876;27;20511;-54
2021/12/14 04:16:43;;;;;;;3.28;2.65;;;9.60;81.70;;;;;;5176078;27;20060;-55
2021/12/14 04:19:13;;;;;;;2.65;2.13;;;9.60;81.70;;;;;;5177092;27;20126;-55
2021/12/14 04:21:42;;;;;;;3.42;2.67;;;9.60;81.70;;;;;;5171083;27;20046;-55
2021/12/14 04:24:10;;;;;;;2.88;2.40;;;9.60;81.70;;;;;;5156740;27;20070;-56
2021/12/14 04:26:37;;;;;;;2.97;2.30;;;9.60;81.70;;;;;;5156579;27;20420;-55
2021/12/14 04:29:04;;;;;;;3.72;2.65;;;9.70;81.80;;;;;;5156374;27;20035;-55
2021/12/14 04:31:36;;;;;;;3.08;2.50;;;9.60;81.70;;;;;;5156358;27;20051;-52
2021/12/14 04:34:03;;;;;;;3.10;2.38;;;9.60;81.70;;;;;;5176546;27;20079;-55
2021/12/14 04:36:30;;;;;;;4.20;2.90;;;9.60;81.70;;;;;;5177009;27;20083;-55
2021/12/14 04:39:02;;;;;;;3.78;2.53;;;9.70;81.70;;;;;;5177142;27;20049;-55
2021/12/14 04:52:32;;;;;;;3.70;2.42;;;9.70;81.80;;;;;;5176516;27;20050;-54
2021/12/14 04:55:03;;;;;;;2.45;2.25;;;9.60;81.70;;;;;;5156274;27;20046;-56
2021/12/14 04:57:43;;;;;;;2.88;2.58;;;9.70;81.80;;;;;;5177007;27;20049;-56
2021/12/14 05:00:21;;;;;;;3.35;2.60;;;9.60;81.70;;;;;;5176744;27;20478;-56
2021/12/14 05:02:47;;;;;;;2.95;2.47;;;9.70;81.80;;;;;;5176812;27;20045;-56
2021/12/14 05:05:20;;;;;;;2.92;2.50;;;9.60;81.70;;;;;;5174762;27;20057;-56
2021/12/14 05:09:20;;;;;;;2.95;2.28;;;9.60;81.70;;;;;;5176732;27;20038;-56
2021/12/14 05:10:53;;;;;;;2.55;2.33;;;9.70;81.80;;;;;;5176576;27;20050;-55
2021/12/14 05:13:24;;;;;;;2.80;2.50;;;9.60;81.70;;;;;;5158011;27;20375;-56
2021/12/14 05:15:50;;;;;;;3.80;3.05;;;9.70;81.80;;;;;;5175021;27;20038;-56
2021/12/14 05:18:16;;;;;;;3.20;2.63;;;9.70;81.80;;;;;;5176696;27;20037;-56
2021/12/14 05:20:44;;;;;;;3.25;2.47;;;9.70;81.80;;;;;;5176895;27;20564;-56
2021/12/14 05:23:13;;;;;;;3.35;2.90;;;9.70;81.80;;;;;;5176284;27;20038;-56
2021/12/14 05:25:39;;;;;;;3.70;2.70;;;9.70;81.80;;;;;;5174538;27;20050;-54
2021/12/14 05:28:08;;;;;;;2.90;2.45;;;9.70;81.80;;;;;;5175824;27;20046;-56
2021/12/14 05:30:40;;;;;;;3.65;2.88;;;9.70;81.80;;;;;;5176400;27;20049;-56
2021/12/14 05:33:21;;;;;;;3.75;2.80;;;9.70;81.80;;;;;;5176215;27;20505;-56
2021/12/14 05:35:48;;;;;;;2.78;2.33;;;9.70;81.80;;;;;;5174901;27;20129;-57
2021/12/14 05:38:23;;;;;;;3.10;2.42;;;9.60;81.80;;;;;;5175807;27;20045;-56
2021/12/14 05:43:28;;;;;;;2.60;2.20;;;9.70;81.80;;;;;;5176155;27;20429;-54
2021/12/14 05:46:04;;;;;;;3.35;2.45;;;9.70;81.80;;;;;;5175909;27;20130;-56
2021/12/14 05:48:34;;;;;;;3.33;2.63;;;9.70;82.40;;;;;;5174289;27;20042;-57
2021/12/14 05:51:08;;;;;;;3.63;2.75;;;9.70;81.80;;;;;;5175913;27;20150;-56
2021/12/14 05:53:38;;;;;;;3.00;2.70;;;9.70;81.80;;;;;;5175047;27;20065;-56
2021/12/14 05:56:11;;;;;;;3.10;2.65;;;9.70;81.80;;;;;;5175455;27;20418;-56
2021/12/14 05:58:37;;;;;;;4.32;2.75;;;9.70;81.80;;;;;;5154889;27;20427;-55
2021/12/14 06:01:07;;;;;;;3.38;2.70;;;9.70;81.80;;;;;;5175370;27;20043;-57
2021/12/14 06:03:41;;;;;;;2.88;2.53;;;9.70;81.80;;;;;;5175832;27;20042;-56
2021/12/14 06:06:21;;;;;;;3.28;2.88;;;9.70;81.80;;;;;;5156604;27;20106;-56
2021/12/14 06:08:47;;;;;;;3.63;3.00;;;9.60;81.70;;;;;;5154844;27;20075;-53
2021/12/14 06:11:24;;;;;;;3.15;2.58;;;9.70;81.90;;;;;;5174956;27;20034;-56
2021/12/14 06:13:50;;;;;;;3.40;3.05;;;9.70;81.80;;;;;;5175229;27;20038;-56
2021/12/14 06:16:36;;;;;;;4.35;3.33;;;9.70;81.80;;;;;;5175190;27;20569;-54
2021/12/14 06:19:28;;;;;;;3.75;3.08;;;9.70;81.80;;;;;;5172668;27;20046;-57
2021/12/14 06:22:02;;;;;;;4.13;3.30;;;9.70;81.80;;;;;;5174850;27;20034;-54
2021/12/14 06:24:32;;;;;;;3.95;3.00;;;9.70;81.80;;;;;;5156161;27;20050;-56
2021/12/14 06:27:01;;;;;;;3.58;2.97;;;9.70;81.80;;;;;;5174751;27;20050;-56
2021/12/14 06:29:50;;;;;;;3.13;2.83;;;9.70;81.80;;;;;;5173001;27;20461;-55
2021/12/14 06:32:20;;;;;;;2.85;2.53;;;9.70;81.90;;;;;;5174025;27;20050;-56
2021/12/14 06:34:50;;;;;;;2.80;2.50;;;9.70;81.80;;;;;;5156335;27;20150;-56
2021/12/14 06:40:09;;;;;;;3.03;2.65;;;9.70;81.80;;;;;;5171917;27;20162;-55
2021/12/14 06:42:39;;;;;;;2.92;2.63;;;9.70;81.80;;;;;;5174520;27;20061;-55
2021/12/14 06:45:21;;;;;;;3.28;2.67;;;9.70;81.80;;;;;;5174743;27;20500;-55
2021/12/14 06:47:52;;;;;;;3.35;3.00;;;9.70;81.80;;;;;;5174677;27;20504;-56
2021/12/14 06:50:24;;;;;;;3.63;3.00;;;9.70;81.80;;;;;;5173253;27;20049;-54
2021/12/14 06:53:11;;;;;;;4.45;3.30;;;9.70;81.90;;;;;;5174735;27;20038;-56
2021/12/14 06:55:38;;;;;;;3.63;2.80;;;9.70;81.80;;;;;;5174319;27;20123;-56
2021/12/14 06:58:14;;;;;;;4.15;3.55;;;9.70;81.90;;;;;;5174250;27;20038;-56
2021/12/14 07:00:47;;;;;;;4.18;3.25;;;9.70;81.90;;;;;;5174332;27;20528;-52
2021/12/14 07:03:14;;;;;;;3.53;2.75;;;9.70;81.90;;;;;;5134735;27;20107;-54
2021/12/14 07:05:45;;;;;;;3.80;2.88;;;9.70;81.90;;;;;;5154003;27;20454;-53
2021/12/14 07:08:23;;;;;;;3.60;3.13;;;9.70;81.90;;;;;;5154070;27;20038;-55
2021/12/14 07:10:50;;;;;;;3.88;3.20;;;9.70;81.90;;;;;;5153807;27;20046;-55
2021/12/14 07:13:24;;;;;;;3.67;3.17;;;9.70;81.90;;;;;;5154891;27;20047;-54
2021/12/14 07:15:51;;;;;;;4.93;3.63;;;9.70;81.80;;;;;;5153541;27;20137;-56
2021/12/14 07:18:23;;;;;;;3.85;3.35;;;9.70;81.90;;;;;;5153815;27;20062;-56
2021/12/14 07:20:50;;;;;;;3.65;2.88;;;9.70;81.90;;;;;;5153869;27;20046;-56
2021/12/14 07:23:28;;;;;;;3.80;2.97;;;9.70;81.90;;;;;;5155224;27;20054;-56
2021/12/14 07:26:00;;;;;;;3.05;2.50;;;9.70;81.80;;;;;;5154157;27;20402;-55
2021/12/14 07:28:33;;;;;;;3.55;2.90;;;9.70;81.90;;;;;;5153739;27;20035;-56
2021/12/14 07:31:10;;;;;;;4.80;3.35;;;9.70;81.90;;;;;;5153438;27;20035;-56
2021/12/14 07:33:36;;;;;;;4.20;2.70;;;9.70;81.80;;;;;;5136230;27;20081;-56
2021/12/14 07:36:19;;;;;;;3.42;2.75;;;9.70;81.90;;;;;;5153614;27;20071;-54
2021/12/14 07:39:00;;;;;;;3.58;2.83;;;9.70;81.80;;;;;;5153376;27;20038;-55
2021/12/14 07:41:35;;;;;;;4.93;3.95;;;9.70;81.90;;;;;;5153294;27;20054;-55
2021/12/14 07:44:05;;;;;;;3.17;2.90;;;9.70;81.90;;;;;;5154252;27;20047;-55
2021/12/14 07:47:14;;;;;;;4.43;2.97;;;9.70;81.90;;;;;;5152345;27;20182;-55
2021/12/14 07:49:42;;;;;;;4.82;3.67;;;9.70;81.90;;;;;;5048068;28;20049;-56
2021/12/14 07:52:07;;;;;;;4.70;3.78;;;9.70;81.90;;;;;;5051842;28;20144;-55
2021/12/14 07:54:42;;;;;;;31.80;18.30;;;9.70;81.90;;;;;;5053096;28;20501;-54
2021/12/14 07:57:10;;;;;;;26.50;18.20;;;9.70;82.80;;;;;;5052814;28;20049;-56
2021/12/14 07:59:40;;;;;;;21.38;14.55;;;9.70;83.50;;;;;;5052772;28;20166;-56
2021/12/14 08:02:13;;;;;;;17.73;12.40;;;9.70;83.90;;;;;;5052383;28;20049;-56
2021/12/14 08:04:43;;;;;;;15.43;11.25;;;9.70;83.90;;;;;;5053197;28;20053;-55
2021/12/14 08:07:19;;;;;;;14.70;11.15;;;9.80;84.00;;;;;;5052536;28;20053;-55
2021/12/14 08:09:50;;;;;;;15.55;10.40;;;9.80;84.00;;;;;;5052575;28;20048;-55
2021/12/14 08:12:48;;;;;;;15.63;11.32;;;9.80;84.00;;;;;;5035785;28;20053;-55
2021/12/14 08:15:28;;;;;;;15.30;10.55;;;9.80;83.90;;;;;;5052355;28;20080;-51
2021/12/14 08:18:16;;;;;;;17.48;10.27;;;9.80;83.90;;;;;;5051867;28;20056;-52
2021/12/14 08:20:52;;;;;;;13.80;9.73;;;9.80;83.70;;;;;;5052231;28;20053;-56
2021/12/14 08:23:26;;;;;;;13.63;9.77;;;9.80;83.80;;;;;;5052403;28;20512;-55
2021/12/14 08:25:58;;;;;;;14.15;10.73;;;9.80;83.80;;;;;;5080483;27;20066;-55
2021/12/14 08:28:24;;;;;;;12.73;9.77;;;9.80;83.70;;;;;;5176885;27;20069;-56
2021/12/14 08:30:58;;;;;;;15.75;10.88;;;9.80;83.70;;;;;;5177109;27;20042;-55
2021/12/14 08:33:26;;;;;;;14.60;9.90;;;9.80;83.60;;;;;;5176580;27;20054;-55
2021/12/14 08:35:56;;;;;;;14.25;9.10;;;9.90;83.60;;;;;;5177327;27;20049;-57
2021/12/14 08:38:22;;;;;;;13.40;10.20;;;9.80;83.50;;;;;;5162267;27;20491;-56
2021/12/14 08:40:58;;;;;;;12.38;9.35;;;9.80;83.50;;;;;;5167803;27;20045;-56
2021/12/14 08:43:30;;;;;;;;;;;9.80;83.30;;;;;;5158808;27;20042;-56
2021/12/14 08:45:59;;;;;;;14.98;10.50;;;9.80;83.10;;;;;;5177117;27;19919;-56
2021/12/14 08:48:32;;;;;;;14.07;10.20;;;9.80;83.40;;;;;;5176866;27;20045;-54
2021/12/14 08:51:14;;;;;;;12.05;9.15;;;9.80;83.30;;;;;;5174609;27;20083;-56
2021/12/14 08:53:46;;;;;;;12.07;9.70;;;9.80;83.20;;;;;;5157178;27;20049;-55
2021/12/14 08:56:13;;;;;;;12.98;9.93;;;9.80;83.20;;;;;;5156239;27;20407;-55
2021/12/14 08:58:40;;;;;;;11.40;8.82;;;9.80;83.20;;;;;;5155854;27;20527;-54
2021/12/14 09:01:16;;;;;;;12.48;9.43;;;9.80;83.20;;;;;;5156820;27;20505;-56
2021/12/14 09:03:48;;;;;;;14.52;10.20;;;9.80;83.10;;;;;;5165073;27;20035;-52
2021/12/14 09:06:18;;;;;;;12.43;9.68;;;9.80;83.10;;;;;;5175339;27;20042;-53
2021/12/14 09:08:46;;;;;;;12.35;9.05;;;9.80;83.10;;;;;;5163816;27;20573;-50
2021/12/14 09:11:15;;;;;;;12.57;9.52;;;9.80;83.70;;;;;;5154771;27;20503;-51
2021/12/14 09:13:41;;;;;;;12.10;9.05;;;9.80;83.10;;;;;;5174854;27;20042;-55
2021/12/14 09:16:20;;;;;;;12.13;8.95;;;9.80;83.10;;;;;;5175621;27;20046;-55
2021/12/14 09:18:51;;;;;;;12.05;8.50;;;9.80;83.10;;;;;;5161985;27;20103;-51
2021/12/14 09:21:25;;;;;;;11.55;8.52;;;9.80;83.10;;;;;;5155515;27;20113;-49
2021/12/14 09:23:58;;;;;;;12.10;8.95;;;9.80;83.00;;;;;;5172525;27;20061;-53
2021/12/14 09:26:27;;;;;;;11.95;8.52;;;9.80;83.00;;;;;;5172422;27;20046;-54
2021/12/14 09:28:54;;;;;;;10.35;8.07;;;9.80;82.90;;;;;;5172449;27;20484;-51
2021/12/14 09:31:25;;;;;;;12.10;8.63;;;9.80;82.90;;;;;;5151200;27;20053;-54
2021/12/14 09:33:56;;;;;;;13.20;9.38;;;9.80;82.90;;;;;;5172067;27;20057;-52
2021/12/14 09:36:23;;;;;;;14.80;9.32;;;9.80;82.90;;;;;;5172195;27;20057;-52
2021/12/14 09:38:56;;;;;;;11.13;8.73;;;9.90;82.90;;;;;;5152994;27;20132;-54
2021/12/14 09:41:31;;;;;;;12.43;9.05;;;10.00;83.60;;;;;;5170341;27;20053;-52
2021/12/14 09:43:57;;;;;;;;;;;9.90;82.90;;;;;;5172262;27;20078;-55
2021/12/14 09:46:24;;;;;;;11.18;9.18;;;9.80;82.60;;;;;;5171785;27;19993;-53
2021/12/14 09:48:56;;;;;;;11.95;8.75;;;9.80;82.80;;;;;;5152815;27;20046;-48
2021/12/14 09:51:47;;;;;;;12.27;8.73;;;9.90;82.80;;;;;;5169780;27;20050;-54
2021/12/14 09:54:18;;;;;;;11.05;8.20;;;9.90;82.80;;;;;;5170867;27;20395;-55
2021/12/14 09:57:09;;;;;;;10.38;8.02;;;9.90;82.70;;;;;;5165503;27;20087;-53
2021/12/14 09:59:36;;;;;;;12.10;8.63;;;9.90;82.70;;;;;;5149591;27;20054;-51
2021/12/14 10:02:08;;;;;;;12.23;8.15;;;9.90;82.70;;;;;;5151226;27;20394;-52
2021/12/14 10:04:39;;;;;;;10.73;8.23;;;9.90;82.70;;;;;;5150506;27;20190;-55
2021/12/14 10:07:09;;;;;;;12.05;8.65;;;9.90;82.70;;;;;;5150272;27;20043;-54
2021/12/14 10:09:42;;;;;;;10.65;8.55;;;9.90;82.60;;;;;;5132149;27;20049;-54
2021/12/14 10:12:49;;;;;;;11.13;8.57;;;9.90;82.70;;;;;;5154205;27;20410;-51
2021/12/14 10:15:21;;;;;;;12.30;9.02;;;9.90;82.70;;;;;;5135441;27;20486;-55
2021/12/14 10:17:48;;;;;;;11.85;8.75;;;9.90;82.60;;;;;;5135388;27;20059;-55
2021/12/14 10:20:26;;;;;;;10.25;7.70;;;9.90;82.60;;;;;;5135217;27;20119;-56
2021/12/14 10:22:52;;;;;;;11.05;8.07;;;9.90;82.60;;;;;;5154418;27;20039;-56
2021/12/14 10:25:22;;;;;;;11.13;8.85;;;9.90;82.60;;;;;;5155105;27;20043;-56
2021/12/14 10:27:49;;;;;;;11.68;8.77;;;9.90;82.60;;;;;;5154768;27;20446;-56
2021/12/14 10:30:22;;;;;;;10.82;7.82;;;10.00;82.60;;;;;;5154207;27;20078;-55
2021/12/14 10:32:48;;;;;;;36.53;26.70;;;9.90;82.50;;;;;;5154392;27;20045;-56
2021/12/14 10:35:22;;;;;;;44.88;28.08;;;9.90;84.20;;;;;;5155053;27;20091;-56
2021/12/14 10:43:15;;;;;;;31.42;22.20;;;9.70;86.20;;;;;;5154641;27;20050;-56
2021/12/14 10:46:09;;;;;;;32.75;22.23;;;9.70;86.20;;;;;;5155141;27;20513;-54
2021/12/14 10:48:40;;;;;;;30.02;21.27;;;9.70;86.00;;;;;;5171490;27;20056;-56
2021/12/14 10:51:09;;;;;;;30.30;20.42;;;9.70;85.90;;;;;;5175374;27;20053;-56
2021/12/14 10:53:36;;;;;;;30.50;21.10;;;9.80;85.90;;;;;;5155810;27;20099;-56
2021/12/14 10:56:13;;;;;;;27.08;19.95;;;9.80;85.70;;;;;;5163582;27;20055;-54
2021/12/14 10:58:43;;;;;;;28.77;18.90;;;9.80;85.60;;;;;;5164810;27;20405;-55
2021/12/14 11:01:25;;;;;;;28.60;20.02;;;9.80;85.50;;;;;;5174685;27;20038;-53
2021/12/14 11:03:56;;;;;;;24.98;18.85;;;9.80;85.30;;;;;;5155117;27;20045;-55
2021/12/14 11:06:29;;;;;;;27.02;19.80;;;9.80;85.10;;;;;;5154701;27;20042;-54
2021/12/14 11:09:38;;;;;;;26.33;18.77;;;9.80;85.10;;;;;;5153688;27;20441;-56
2021/12/14 11:11:54;;;;;;;25.17;17.13;;;9.90;85.00;;;;;;5152938;27;20089;-50
2021/12/14 11:14:28;;;;;;;23.48;17.65;;;9.80;84.80;;;;;;5153024;27;20039;-53
2021/12/14 11:19:56;;;;;;;27.25;19.40;;;9.80;84.60;;;;;;5173928;27;20050;-53
2021/12/14 11:22:42;;;;;;;25.38;18.73;;;9.80;84.40;;;;;;5173644;27;20038;-57
2021/12/14 11:25:20;;;;;;;27.33;18.38;;;9.90;84.50;;;;;;5174366;27;20054;-55
2021/12/14 11:27:58;;;;;;;25.75;18.48;;;9.90;84.40;;;;;;5171718;27;20034;-56
2021/12/14 11:30:42;;;;;;;25.45;17.42;;;9.90;84.30;;;;;;5157702;27;20093;-49
2021/12/14 11:33:20;;;;;;;23.63;16.80;;;9.90;84.20;;;;;;5157570;27;20052;-55
2021/12/14 11:36:02;;;;;;;24.27;16.75;;;9.90;84.10;;;;;;5156851;27;20038;-56
2021/12/14 11:38:38;;;;;;;24.15;17.85;;;9.90;84.10;;;;;;5158239;27;20486;-53
2021/12/14 11:41:34;;;;;;;21.48;15.55;;;9.90;84.10;;;;;;5175249;27;20370;-56
2021/12/14 11:44:21;;;;;;;22.20;16.80;;;9.90;83.90;;;;;;5177123;27;20057;-56
2021/12/14 11:46:56;;;;;;;22.80;16.58;;;9.90;83.90;;;;;;5177319;27;20050;-56
2021/12/14 11:49:26;;;;;;;20.75;15.50;;;9.90;83.90;;;;;;5169120;27;20046;-57
2021/12/14 11:51:53;;;;;;;21.90;16.17;;;9.90;83.90;;;;;;5157510;27;20039;-57
2021/12/14 11:54:20;;;;;;;20.67;15.27;;;9.90;83.80;;;;;;5157212;27;20081;-57
2021/12/14 11:56:48;;;;;;;19.88;15.10;;;9.90;83.80;;;;;;5157290;27;20045;-57
2021/12/14 11:59:15;;;;;;;23.17;17.20;;;9.90;83.80;;;;;;5158511;27;20043;-55
2021/12/14 12:01:46;;;;;;;22.15;16.17;;;10.00;83.80;;;;;;5157153;27;20043;-57
2021/12/14 12:04:32;;;;;;;23.23;16.13;;;9.90;84.40;;;;;;5157476;27;20054;-55
2021/12/14 12:09:28;;;;;;;21.55;16.27;;;9.90;83.60;;;;;;5157565;27;20084;-55
2021/12/14 12:09:57;;;;;;;20.80;15.95;;;9.90;83.60;;;;;;5158166;27;20107;-55
2021/12/14 12:12:31;;;;;;;21.77;15.52;;;9.90;83.60;;;;;;5157464;27;20054;-56
2021/12/14 12:15:18;;;;;;;20.40;15.70;;;10.00;83.70;;;;;;5156966;27;20053;-57
2021/12/14 12:17:46;;;;;;;20.25;13.75;;;10.00;83.60;;;;;;5156265;27;20046;-56
2021/12/14 12:20:24;;;;;;;21.73;14.30;;;9.90;83.50;;;;;;5156491;27;20046;-57
2021/12/14 12:23:01;;;;;;;18.88;13.75;;;10.00;84.30;;;;;;5157380;27;20035;-57
2021/12/14 12:25:32;;;;;;;21.95;14.48;;;10.00;84.10;;;;;;5156745;27;20087;-58
2021/12/14 12:28:03;;;;;;;22.38;13.95;;;10.00;84.10;;;;;;5156746;27;20043;-59
2021/12/14 12:30:39;;;;;;;19.52;14.50;;;10.00;84.00;;;;;;5156591;27;20097;-59
2021/12/14 12:33:44;;;;;;;18.10;13.52;;;9.90;83.90;;;;;;5157191;27;20039;-59
2021/12/14 12:36:18;;;;;;;18.88;13.45;;;10.00;83.80;;;;;;5155730;27;20058;-59
2021/12/14 12:39:00;;;;;;;18.02;13.80;;;9.90;83.80;;;;;;5156286;27;20513;-59
2021/12/14 12:41:49;;;;;;;18.40;13.98;;;10.00;83.80;;;;;;5137920;27;20057;-57
2021/12/14 12:44:19;;;;;;;17.30;13.35;;;10.00;83.80;;;;;;5156155;27;20094;-59
2021/12/14 12:46:59;;;;;;;17.70;12.82;;;10.00;83.70;;;;;;5156284;27;20044;-58
2021/12/14 12:49:27;;;;;;;16.02;12.90;;;10.00;83.60;;;;;;5155759;27;20042;-58
2021/12/14 12:52:12;;;;;;;16.63;12.93;;;10.00;83.70;;;;;;5156395;27;20121;-58
2021/12/14 12:55:04;;;;;;;17.05;13.18;;;10.00;83.60;;;;;;5137097;27;20119;-59
2021/12/14 12:57:42;;;;;;;17.58;13.70;;;10.00;83.50;;;;;;5156016;27;20133;-59
2021/12/14 13:00:38;;;;;;;16.75;12.65;;;10.00;84.20;;;;;;5155704;27;20085;-58
2021/12/14 13:03:15;;;;;;;14.35;11.40;;;10.00;83.50;;;;;;5138292;27;20046;-58
2021/12/14 13:05:53;;;;;;;15.98;11.88;;;9.90;83.40;;;;;;5156164;27;20046;-59
2021/12/14 13:08:40;;;;;;;16.02;12.30;;;10.00;83.40;;;;;;5156011;27;20050;-59
2021/12/14 13:11:08;;;;;;;16.88;12.35;;;10.00;83.40;;;;;;5155852;27;20130;-59
2021/12/14 13:13:40;;;;;;;15.13;12.07;;;10.00;83.40;;;;;;5156998;27;20057;-58
2021/12/14 13:16:10;;;;;;;14.80;11.80;;;10.00;83.40;;;;;;5155889;27;20050;-59
2021/12/14 13:18:39;;;;;;;18.38;12.38;;;10.10;83.40;;;;;;5156068;27;20042;-59
2021/12/14 13:21:23;;;;;;;15.20;11.82;;;10.00;83.30;;;;;;5155365;27;20047;-58
2021/12/14 13:24:06;;;;;;;15.35;12.05;;;10.00;83.20;;;;;;5156140;27;20046;-58
2021/12/14 13:26:35;;;;;;;15.48;11.30;;;10.00;83.30;;;;;;5157196;27;20454;-58
2021/12/14 13:29:35;;;;;;;14.75;11.65;;;10.00;83.20;;;;;;5176981;27;20081;-58
2021/12/14 13:32:12;;;;;;;15.60;11.38;;;10.00;83.10;;;;;;5168924;27;20106;-59
2021/12/14 13:34:44;;;;;;;15.20;11.55;;;10.00;83.20;;;;;;5157145;27;20050;-59
2021/12/14 13:37:12;;;;;;;13.63;10.30;;;10.00;83.20;;;;;;5175306;27;20042;-58
2021/12/14 13:39:39;;;;;;;15.32;10.73;;;10.00;83.10;;;;;;5176179;27;20505;-59
2021/12/14 13:42:14;;;;;;;14.43;10.55;;;10.00;83.10;;;;;;5175995;27;20470;-58
2021/12/14 13:44:46;;;;;;;12.48;10.45;;;10.00;83.10;;;;;;5176342;27;20159;-59
2021/12/14 13:47:13;;;;;;;13.00;9.95;;;10.00;83.10;;;;;;5174353;27;20178;-58
2021/12/14 13:49:41;;;;;;;16.38;10.35;;;10.00;83.10;;;;;;5175870;27;20041;-58
2021/12/14 13:52:10;;;;;;;13.30;10.65;;;10.00;83.10;;;;;;5175611;27;20082;-58
2021/12/14 13:55:03;;;;;;;12.73;10.05;;;10.00;83.00;;;;;;5175746;27;20525;-58